Time;durP1;ratioP1;P1;durP2;ratioP2;P2;SDS_P1;SDS_P2;PMS_P1;PMS_P2;Temp;Humidity;BMP_temperature;BMP_pressure;BME280_temperature;BME280_humidity;BME280_pressure;Samples;Min_cycle;Max_cycle;Signal;HPM_P1;HPM_P2
2021/06/18 00:01:01;;;;;;;20.95;7.55;;;;;;;19.10;100.00;101032.20;1677250;85;20866;-86
2021/06/18 00:03:26;;;;;;;19.02;8.10;;;;;;;19.08;100.00;101037.95;1677303;85;21961;-86
2021/06/18 00:05:52;;;;;;;19.60;7.12;;;;;;;19.08;100.00;101039.88;1655904;85;20894;-86
2021/06/18 00:08:18;;;;;;;15.10;8.50;;;;;;;19.07;100.00;101043.17;1677401;85;20956;-89
2021/06/18 00:10:44;;;;;;;20.82;8.00;;;;;;;19.05;100.00;101042.09;1677538;85;20965;-88
2021/06/18 00:13:13;;;;;;;16.52;8.25;;;;;;;19.03;100.00;101044.34;1678955;85;20981;-89
2021/06/18 00:15:39;;;;;;;18.25;7.67;;;;;;;19.03;100.00;101040.78;1677468;85;21962;-89
2021/06/18 00:18:05;;;;;;;18.23;8.35;;;;;;;19.02;100.00;101033.15;1677525;85;20978;-89
2021/06/18 00:20:31;;;;;;;18.42;8.18;;;;;;;19.02;100.00;101047.37;1677449;85;21041;-89
2021/06/18 00:22:57;;;;;;;21.00;7.97;;;;;;;19.01;100.00;101047.94;1677393;85;21603;-88
2021/06/18 00:25:23;;;;;;;16.65;8.30;;;;;;;19.01;100.00;101038.38;1677416;85;20992;-89
2021/06/18 00:27:52;;;;;;;21.75;8.55;;;;;;;19.03;100.00;101039.41;1677583;85;21180;-88
2021/06/18 00:30:18;;;;;;;16.45;8.55;;;;;;;19.02;100.00;101045.44;1677154;84;20989;-88
2021/06/18 00:32:44;;;;;;;22.00;8.85;;;;;;;19.02;100.00;101047.37;1677620;85;21045;-88
2021/06/18 00:35:11;;;;;;;17.12;8.20;;;;;;;19.02;100.00;101059.66;1677501;85;21064;-87
2021/06/18 00:37:37;;;;;;;23.38;7.87;;;;;;;19.02;100.00;101062.39;1677518;85;21064;-88
2021/06/18 00:40:05;;;;;;;15.63;8.45;;;;;;;19.03;100.00;101058.01;1677689;85;21102;-88
2021/06/18 00:42:32;;;;;;;20.55;8.50;;;;;;;19.03;100.00;101055.27;1672249;84;21565;-89
2021/06/18 00:44:58;;;;;;;15.30;7.92;;;;;;;19.05;100.00;101060.42;1671062;85;21071;-88
2021/06/18 00:47:25;;;;;;;18.98;7.95;;;;;;;19.05;100.00;101043.46;1671198;85;20951;-88
2021/06/18 00:49:53;;;;;;;17.82;7.80;;;;;;;19.05;100.00;101034.47;1670943;85;21110;-88
2021/06/18 00:52:21;;;;;;;20.85;6.95;;;;;;;19.04;100.00;101030.92;1649869;84;21103;-87
2021/06/18 00:54:48;;;;;;;15.30;7.75;;;;;;;19.03;100.00;101019.77;1641100;87;21023;-88
2021/06/18 00:57:15;;;;;;;17.40;7.70;;;;;;;19.04;100.00;101033.66;1694067;84;21043;-88
2021/06/18 00:59:41;;;;;;;15.55;6.87;;;;;;;19.04;100.00;101041.86;1684266;84;21027;-88
2021/06/18 01:02:07;;;;;;;25.95;8.05;;;;;;;19.04;100.00;101041.05;1643913;87;20911;-87
2021/06/18 01:04:33;;;;;;;24.27;7.50;;;;;;;19.01;100.00;101042.47;1639334;87;21161;-87
2021/06/18 01:07:11;;;;;;;18.23;7.37;;;;;;;19.00;100.00;101036.77;1639421;87;21034;-88
2021/06/18 01:09:59;;;;;;;17.25;7.90;;;;;;;19.00;100.00;101043.59;1639640;86;21022;-88
2021/06/18 01:12:29;;;;;;;15.95;7.47;;;;;;;19.00;100.00;101053.69;1622521;88;21573;-87
2021/06/18 01:15:09;;;;;;;16.93;7.22;;;;;;;18.99;100.00;101052.88;1662297;85;21022;-87
2021/06/18 01:17:57;;;;;;;19.80;8.13;;;;;;;18.97;100.00;101061.13;1662150;85;21090;-87
2021/06/18 01:20:57;;;;;;;15.60;8.08;;;;;;;18.97;100.00;101057.03;1662295;84;21049;-87
2021/06/18 01:23:43;;;;;;;19.82;8.18;;;;;;;18.96;100.00;101047.23;1662325;85;21065;-87
2021/06/18 01:26:25;;;;;;;19.48;8.73;;;;;;;18.95;100.00;101055.98;1613301;89;21557;-86
2021/06/18 01:28:58;;;;;;;20.75;8.68;;;;;;;18.95;100.00;101066.11;1613364;89;21057;-87
2021/06/18 01:31:39;;;;;;;18.95;8.63;;;;;;;18.94;100.00;101084.42;1584786;90;21155;-86
2021/06/18 01:34:26;;;;;;;20.30;8.25;;;;;;;18.94;100.00;101099.44;1582381;90;21135;-86
2021/06/18 01:36:55;;;;;;;17.17;8.63;;;;;;;18.92;100.00;101094.03;1586605;90;21105;-86
2021/06/18 01:39:23;;;;;;;17.73;7.80;;;;;;;18.92;100.00;101094.83;1586591;90;21049;-86
2021/06/18 01:41:52;;;;;;;19.65;8.45;;;;;;;18.91;100.00;101098.66;1587064;89;21049;-86
2021/06/18 01:44:20;;;;;;;22.67;8.23;;;;;;;18.93;100.00;101092.91;1588504;90;21589;-87
2021/06/18 01:46:48;;;;;;;17.15;8.18;;;;;;;18.93;100.00;101092.91;1588664;90;21065;-86
2021/06/18 01:49:16;;;;;;;17.92;7.20;;;;;;;18.92;100.00;101091.30;1575262;90;21102;-86
2021/06/18 01:51:43;;;;;;;15.32;7.08;;;;;;;18.92;100.00;101097.56;1533882;93;21654;-87
2021/06/18 01:54:11;;;;;;;21.52;7.10;;;;;;;18.92;100.00;101094.03;1514552;93;21685;-86
2021/06/18 01:56:40;;;;;;;15.85;7.20;;;;;;;18.92;100.00;101094.03;1510887;93;21871;-86
2021/06/18 01:59:07;;;;;;;18.60;7.30;;;;;;;18.92;100.00;101096.20;1510790;95;21147;-86
2021/06/18 02:01:40;;;;;;;14.35;6.70;;;;;;;18.92;100.00;101103.59;1510953;95;21151;-86
2021/06/18 02:04:07;;;;;;;14.45;6.00;;;;;;;18.91;100.00;101101.39;1551640;91;21107;-87
2021/06/18 02:06:37;;;;;;;12.33;5.58;;;;;;;18.93;100.00;101117.48;1571067;91;21578;-86
2021/06/18 02:09:06;;;;;;;14.60;5.67;;;;;;;18.91;100.00;101113.68;1504935;92;21091;-86
2021/06/18 02:11:36;;;;;;;18.48;6.30;;;;;;;18.93;100.00;101119.66;1524239;94;21243;-87
2021/06/18 02:14:10;;;;;;;10.75;5.95;;;;;;;18.95;100.00;101112.54;1524330;94;21200;-86
2021/06/18 02:16:41;;;;;;;14.65;6.40;;;;;;;18.97;100.00;101125.31;1524279;94;21090;-85
2021/06/18 02:19:09;;;;;;;14.60;6.03;;;;;;;18.98;100.00;101118.77;1524348;94;21611;-86
2021/06/18 02:21:37;;;;;;;22.13;6.08;;;;;;;19.08;100.00;101127.30;1524202;94;21183;-86
2021/06/18 02:24:05;;;;;;;12.73;6.40;;;;;;;19.08;100.00;101127.30;1524414;94;21087;-86
2021/06/18 02:26:31;;;;;;;12.88;6.33;;;;;;;19.12;100.00;101135.13;1524076;94;21107;-86
2021/06/18 02:28:57;;;;;;;13.43;6.58;;;;;;;19.09;100.00;101130.27;1561681;91;21056;-86
2021/06/18 02:31:25;;;;;;;14.87;6.42;;;;;;;19.16;100.00;101144.36;1573228;91;21103;-86
2021/06/18 02:33:53;;;;;;;16.20;6.37;;;;;;;19.15;100.00;101140.82;1573210;91;21828;-86
2021/06/18 02:36:20;;;;;;;14.80;6.35;;;;;;;19.13;100.00;101142.23;1572990;91;20976;-85
2021/06/18 02:38:48;;;;;;;12.88;5.67;;;;;;;19.16;100.00;101144.36;1573165;91;21106;-87
2021/06/18 02:41:15;;;;;;;16.97;6.03;;;;;;;19.17;100.00;101149.50;1573008;89;21099;-86
2021/06/18 02:43:41;;;;;;;18.77;5.90;;;;;;;19.20;100.00;101148.09;1570158;91;21075;-86
2021/06/18 02:46:07;;;;;;;11.33;5.70;;;;;;;19.21;100.00;101143.70;1570168;91;21329;-86
2021/06/18 02:48:42;;;;;;;20.92;6.65;;;;;;;19.21;100.00;101147.00;1569895;91;20940;-86
2021/06/18 02:51:39;;;;;;;21.42;6.08;;;;;;;19.22;100.00;101152.70;1509761;95;21074;-86
2021/06/18 02:54:44;;;;;;;13.35;5.80;;;;;;;19.21;100.00;101142.89;1518593;94;21586;-86
2021/06/18 02:57:20;;;;;;;21.25;6.65;;;;;;;19.24;100.00;101139.55;1518553;94;21168;-87
2021/06/18 03:00:10;;;;;;;12.00;6.05;;;;;;;19.19;100.00;101128.16;1471800;97;21636;-87
2021/06/18 03:02:47;;;;;;;15.98;6.22;;;;;;;19.27;100.00;101130.18;1404693;102;21098;-86
2021/06/18 03:05:16;;;;;;;20.37;6.25;;;;;;;19.32;100.00;101138.01;1398199;100;21139;-87
2021/06/18 03:07:58;;;;;;;13.55;5.95;;;;;;;19.35;100.00;101139.57;1436169;100;21140;-87
2021/06/18 03:10:26;;;;;;;17.12;6.17;;;;;;;19.41;100.00;101130.17;1401696;102;21091;-87
2021/06/18 03:13:00;;;;;;;14.80;5.72;;;;;;;19.50;100.00;101136.53;1401718;102;21183;-88
2021/06/18 03:15:31;;;;;;;13.60;5.10;;;;;;;19.73;100.00;101141.50;1401458;102;21102;-87
2021/06/18 03:17:58;;;;;;;9.80;4.78;;;;;;;20.11;100.00;101131.59;1401550;102;21646;-86
2021/06/18 03:20:26;;;;;;;15.90;4.90;;;;;;;20.65;100.00;101119.33;1401621;102;21646;-87
2021/06/18 03:22:56;;;;;;;12.43;4.45;;;;;;;21.18;100.00;101115.66;1401764;102;21573;-87
2021/06/18 03:25:25;;;;;;;13.55;4.80;;;;;;;21.61;100.00;101106.70;1401772;102;22122;-87
2021/06/18 03:27:53;;;;;;;11.28;4.20;;;;;;;21.89;100.00;101113.27;1401489;102;21086;-87
2021/06/18 03:30:20;;;;;;;10.30;4.00;;;;;;;22.06;100.00;101105.56;1397520;102;21122;-87
2021/06/18 03:32:49;;;;;;;10.95;3.90;;;;;;;22.02;100.00;101103.23;1366493;105;21185;-87
2021/06/18 03:35:15;;;;;;;14.13;4.28;;;;;;;21.94;100.00;101100.73;1366658;105;21117;-87
2021/06/18 03:37:42;;;;;;;13.25;4.25;;;;;;;21.74;100.00;101103.02;1366716;104;21121;-87
2021/06/18 03:40:09;;;;;;;6.83;3.87;;;;;;;21.66;100.00;101110.67;1366590;105;21546;-88
2021/06/18 03:42:38;;;;;;;12.73;4.50;;;;;;;21.60;100.00;101109.22;1389742;100;21130;-87
2021/06/18 03:45:06;;;;;;;12.47;4.60;;;;;;;21.68;100.00;101119.97;1419686;101;21130;-88
2021/06/18 03:47:33;;;;;;;12.40;3.90;;;;;;;21.66;100.00;101120.27;1450158;95;21127;-87
2021/06/18 03:50:01;;;;;;;11.10;4.22;;;;;;;21.62;100.00;101128.08;1538817;92;21308;-88
2021/06/18 03:52:27;;;;;;;11.08;3.77;;;;;;;21.64;100.00;101136.23;1538514;93;21125;-87
2021/06/18 03:54:54;;;;;;;13.53;4.55;;;;;;;21.73;100.00;101142.53;1538410;93;22010;-88
2021/06/18 03:57:21;;;;;;;9.78;4.10;;;;;;;21.84;100.00;101143.61;1596372;88;21054;-87
2021/06/18 03:59:47;;;;;;;14.50;4.12;;;;;;;21.83;100.00;101150.23;1649891;85;21101;-87
2021/06/18 04:02:15;;;;;;;14.40;4.33;;;;;;;21.70;100.00;101147.86;1684300;85;21900;-87
2021/06/18 04:04:44;;;;;;;13.05;4.45;;;;;;;21.55;100.00;101139.53;1657025;85;21077;-88
2021/06/18 04:07:12;;;;;;;13.88;5.15;;;;;;;21.42;100.00;101151.47;1657269;85;21579;-87
2021/06/18 04:09:39;;;;;;;16.52;4.65;;;;;;;21.24;100.00;101156.07;1657029;85;21069;-87
2021/06/18 04:12:07;;;;;;;16.82;4.92;;;;;;;21.09;100.00;101165.53;1656925;85;21536;-87
2021/06/18 04:14:35;;;;;;;22.77;5.30;;;;;;;21.00;100.00;101168.78;1684314;85;21262;-87
2021/06/18 04:17:05;;;;;;;12.33;4.87;;;;;;;20.95;100.00;101168.38;1684079;83;21013;-87
2021/06/18 04:19:32;;;;;;;20.17;4.85;;;;;;;20.87;100.00;101170.50;1684219;85;21002;-87
2021/06/18 04:22:02;;;;;;;21.52;5.28;;;;;;;20.79;100.00;101174.80;1684278;85;21006;-87
2021/06/18 04:24:29;;;;;;;19.45;6.08;;;;;;;20.74;100.00;101174.16;1684199;85;21001;-86
2021/06/18 04:26:55;;;;;;;18.52;5.45;;;;;;;20.73;100.00;101173.89;1684146;85;21134;-87
2021/06/18 04:29:21;;;;;;;12.80;5.55;;;;;;;20.63;100.00;101170.30;1684229;85;21466;-87
2021/06/18 04:31:48;;;;;;;14.75;5.47;;;;;;;20.55;100.00;101175.16;1684306;85;20895;-87
2021/06/18 04:34:14;;;;;;;15.25;6.05;;;;;;;20.52;100.00;101182.63;1684310;85;21081;-87
2021/06/18 04:36:41;;;;;;;16.95;5.53;;;;;;;20.54;100.00;101187.24;1684282;85;20965;-86
2021/06/18 04:39:09;;;;;;;12.45;5.65;;;;;;;20.59;100.00;101183.58;1684230;85;21861;-87
2021/06/18 04:41:36;;;;;;;13.78;5.80;;;;;;;20.66;100.00;101177.66;1684240;85;21522;-87
2021/06/18 04:44:04;;;;;;;17.40;5.97;;;;;;;20.69;100.00;101187.41;1682177;85;21493;-86
2021/06/18 04:46:30;;;;;;;9.15;5.17;;;;;;;20.67;100.00;101192.39;1709583;81;21046;-87
2021/06/18 04:48:56;;;;;;;14.83;5.58;;;;;;;20.63;100.00;101190.84;1737856;82;20995;-87
2021/06/18 04:51:22;;;;;;;14.05;5.85;;;;;;;20.60;100.00;101184.62;1737810;82;21155;-87
2021/06/18 04:53:52;;;;;;;12.60;6.40;;;;;;;20.58;100.00;101189.59;1737742;82;21011;-87
2021/06/18 04:56:18;;;;;;;13.83;6.45;;;;;;;20.58;100.00;101195.07;1735333;82;20988;-87
2021/06/18 04:58:44;;;;;;;19.73;7.20;;;;;;;20.58;100.00;101203.85;1722540;83;21014;-88
2021/06/18 05:01:10;;;;;;;13.40;6.17;;;;;;;20.55;100.00;101204.48;1722602;81;20919;-87
2021/06/18 05:03:36;;;;;;;18.65;6.85;;;;;;;20.53;100.00;101211.65;1722742;81;21048;-86
2021/06/18 05:06:02;;;;;;;17.57;6.45;;;;;;;20.51;100.00;101211.67;1730771;81;20874;-88
2021/06/18 05:08:28;;;;;;;18.23;7.85;;;;;;;20.50;100.00;101214.98;1714576;83;21051;-88
2021/06/18 05:11:00;;;;;;;17.42;7.55;;;;;;;20.45;100.00;101223.87;1692449;82;20936;-87
2021/06/18 05:13:26;;;;;;;18.48;7.70;;;;;;;20.43;100.00;101225.55;1705422;82;21098;-87
2021/06/18 05:15:52;;;;;;;15.08;7.53;;;;;;;20.42;100.00;101220.63;1711437;82;21355;-89
2021/06/18 05:18:18;;;;;;;19.82;8.28;;;;;;;20.41;100.00;101225.88;1715671;83;20885;-87
2021/06/18 05:20:43;;;;;;;17.95;8.45;;;;;;;20.38;100.00;101229.23;1713524;83;20948;-88
2021/06/18 05:23:09;;;;;;;17.52;9.38;;;;;;;20.35;100.00;101229.02;1672056;85;20908;-87
2021/06/18 05:25:36;;;;;;;18.17;9.28;;;;;;;20.35;100.00;101235.33;1661746;85;21535;-86
2021/06/18 05:28:03;;;;;;;20.70;9.03;;;;;;;20.36;100.00;101226.55;1675038;84;21568;-86
2021/06/18 05:30:30;;;;;;;22.25;9.15;;;;;;;20.42;100.00;101233.52;1679146;85;21023;-87
2021/06/18 05:32:57;;;;;;;24.67;9.85;;;;;;;20.48;100.00;101238.31;1679427;85;21023;-86
2021/06/18 05:35:23;;;;;;;20.80;9.58;;;;;;;20.52;100.00;101236.03;1654328;84;21065;-88
2021/06/18 05:37:53;;;;;;;24.25;9.48;;;;;;;20.58;100.00;101245.73;1674012;84;21017;-91
2021/06/18 05:40:19;;;;;;;21.75;9.30;;;;;;;20.66;100.00;101244.75;1679750;85;21101;-91
2021/06/18 05:43:29;;;;;;;19.48;9.65;;;;;;;20.75;100.00;101233.29;1679870;85;20998;-91
2021/06/18 05:45:55;;;;;;;27.42;9.75;;;;;;;20.88;100.00;101243.34;1663902;85;21080;-91
2021/06/18 05:48:21;;;;;;;19.05;8.70;;;;;;;21.09;100.00;101245.02;1649104;86;20920;-92
2021/06/18 05:51:01;;;;;;;18.70;8.83;;;;;;;21.36;100.00;101243.20;1655548;85;20996;-92
2021/06/18 05:53:27;;;;;;;18.65;7.95;;;;;;;21.66;100.00;101236.06;1654901;86;21521;-92
2021/06/18 05:55:53;;;;;;;18.60;7.47;;;;;;;21.83;100.00;101246.27;1676786;84;21075;-92
2021/06/18 05:58:52;;;;;;;15.13;6.72;;;;;;;22.03;100.00;101236.59;1676628;84;20921;-92
2021/06/18 06:01:18;;;;;;;13.58;5.37;;;;;;;22.66;100.00;101233.79;1677481;84;21608;-92
2021/06/18 06:03:46;;;;;;;12.95;5.50;;;;;;;23.36;100.00;101244.04;1677343;85;20976;-92
2021/06/18 06:10:06;;;;;;;11.18;5.37;;;;;;;23.29;100.00;101247.28;1676161;84;21096;-93
2021/06/18 06:12:31;;;;;;;9.95;5.00;;;;;;;22.82;100.00;101246.44;1678508;84;21017;-91
2021/06/18 06:14:57;;;;;;;10.05;5.17;;;;;;;22.52;100.00;101242.20;1677577;84;20961;-91
2021/06/18 06:17:36;;;;;;;9.58;5.25;;;;;;;22.31;100.00;101253.61;1676970;84;20901;-92
2021/06/18 06:20:06;;;;;;;12.35;5.50;;;;;;;22.13;100.00;101253.56;1677077;85;21657;-92
2021/06/18 06:22:32;;;;;;;14.63;6.03;;;;;;;22.06;100.00;101256.53;1676764;84;21052;-91
2021/06/18 06:25:08;;;;;;;13.40;6.12;;;;;;;21.95;100.00;101262.34;1677240;85;21061;-92
2021/06/18 06:27:34;;;;;;;19.80;6.72;;;;;;;21.89;100.00;101269.69;1677318;84;21040;-90
2021/06/18 06:30:00;;;;;;;13.45;6.15;;;;;;;21.83;100.00;101283.32;1677217;85;21068;-92
2021/06/18 06:32:27;;;;;;;11.78;5.95;;;;;;;21.78;100.00;101274.66;1678766;84;21044;-93
2021/06/18 06:34:53;;;;;;;14.55;5.87;;;;;;;21.68;100.00;101288.11;1677132;85;21024;-93
2021/06/18 06:37:19;;;;;;;13.68;5.42;;;;;;;21.55;100.00;101288.45;1677464;84;21082;-92
2021/06/18 06:40:11;;;;;;;11.85;6.03;;;;;;;21.45;100.00;101289.32;1678602;85;20890;-89
2021/06/18 06:42:37;;;;;;;13.55;5.50;;;;;;;21.36;100.00;101296.13;1678050;85;21024;-91
2021/06/18 06:45:06;;;;;;;16.97;6.10;;;;;;;21.29;100.00;101297.91;1675815;84;21092;-89
2021/06/18 06:47:35;;;;;;;10.23;5.62;;;;;;;21.28;100.00;101307.27;1674311;85;21476;-93
2021/06/18 06:50:03;;;;;;;11.93;5.33;;;;;;;21.24;100.00;101307.66;1677431;84;21495;-92
2021/06/18 06:52:29;;;;;;;11.43;5.78;;;;;;;21.19;100.00;101311.09;1663734;86;21069;-94
2021/06/18 06:55:12;;;;;;;15.30;5.55;;;;;;;21.19;100.00;101313.27;1638641;84;21027;-91
2021/06/18 06:57:38;;;;;;;10.60;5.28;;;;;;;21.21;100.00;101321.99;1664053;86;21299;-93
2021/06/18 07:00:06;;;;;;;13.95;5.58;;;;;;;21.29;100.00;101322.58;1663828;86;21067;-91
2021/06/18 07:02:32;;;;;;;10.68;5.05;;;;;;;21.34;100.00;101318.91;1636761;87;21146;-86
2021/06/18 07:04:58;;;;;;;11.93;5.55;;;;;;;21.33;100.00;101333.75;1663968;86;20916;-87
2021/06/18 07:07:24;;;;;;;11.48;5.62;;;;;;;21.26;100.00;101336.91;1663629;86;20904;-90
2021/06/18 07:09:50;;;;;;;11.10;6.03;;;;;;;21.15;100.00;101342.44;1636570;87;21152;-91
2021/06/18 07:12:16;;;;;;;11.68;6.08;;;;;;;21.05;100.00;101335.26;1663908;86;20947;-93
2021/06/18 07:18:25;;;;;;;12.63;5.37;;;;;;;21.08;100.00;101336.00;1652543;85;21105;-85
2021/06/18 07:20:51;;;;;;;9.68;5.83;;;;;;;21.38;100.00;101344.59;1645891;86;21043;-85
2021/06/18 07:23:18;;;;;;;11.28;4.90;;;;;;;21.58;100.00;101328.16;1677638;84;21467;-89
2021/06/18 07:25:44;;;;;;;9.28;4.80;;;;;;;21.62;100.00;101337.93;1695278;84;20991;-86
2021/06/18 07:28:11;;;;;;;16.75;5.00;;;;;;;21.53;100.00;101336.52;1694382;83;20975;-90
2021/06/18 07:30:37;;;;;;;10.65;4.40;;;;;;;21.48;100.00;101331.20;1688722;84;21509;-88
2021/06/18 07:33:05;;;;;;;9.88;4.80;;;;;;;21.39;100.00;101333.09;1695235;84;21050;-86
2021/06/18 07:35:32;;;;;;;12.00;5.15;;;;;;;21.32;100.00;101336.23;1693859;84;21920;-90
2021/06/18 07:37:59;;;;;;;11.35;5.22;;;;;;;21.35;100.00;101330.68;1694224;84;21032;-93
2021/06/18 07:40:24;;;;;;;11.75;4.95;;;;;;;21.53;100.00;101331.03;1693911;83;21014;-92
2021/06/18 07:42:50;;;;;;;12.43;5.03;;;;;;;22.06;100.00;101317.77;1676326;85;21136;-93
2021/06/18 07:45:17;;;;;;;8.98;4.55;;;;;;;22.57;100.00;101312.67;1675523;85;21030;-92
2021/06/18 07:55:30;;;;;;;5.83;3.30;;;;;;;24.16;100.00;101299.72;1635533;87;21013;-93
2021/06/18 07:57:55;;;;;;;7.90;3.17;;;;;;;24.70;100.00;101288.18;1675544;85;21078;-93
2021/06/18 08:00:23;;;;;;;6.47;3.33;;;;;;;24.82;100.00;101301.20;1583679;89;21012;-95
2021/06/18 08:10:22;;;;;;;6.62;3.20;;;;;;;25.74;100.00;101290.94;1583598;89;21083;-93
2021/06/18 08:12:49;;;;;;;4.37;2.52;;;;;;;25.57;100.00;101303.02;1583766;88;21022;-91
2021/06/18 08:15:18;;;;;;;8.95;3.08;;;;;;;25.41;100.00;101318.05;1595085;88;21105;-90
2021/06/18 08:17:46;;;;;;;9.83;3.00;;;;;;;25.04;100.00;101320.70;1606513;88;21205;-89
2021/06/18 08:20:13;;;;;;;8.28;3.37;;;;;;;24.71;100.00;101317.95;1606066;89;21098;-89
2021/06/18 08:22:40;;;;;;;7.40;3.35;;;;;;;24.37;100.00;101308.79;1607133;88;21047;-89
2021/06/18 08:25:08;;;;;;;5.78;3.75;;;;;;;24.11;100.00;101300.70;1659795;84;20994;-88
2021/06/18 08:27:34;;;;;;;7.20;4.33;;;;;;;24.19;100.00;101292.96;1706929;83;21549;-91
2021/06/18 08:30:08;;;;;;;9.90;4.95;;;;;;;24.29;100.00;101305.52;1707040;83;21125;-90
2021/06/18 08:32:34;;;;;;;9.30;5.03;;;;;;;24.43;100.00;101308.84;1706782;83;21533;-91
2021/06/18 08:34:59;;;;;;;6.70;5.28;;;;;;;24.40;100.00;101305.36;1706886;83;20895;-90
2021/06/18 08:37:25;;;;;;;10.40;5.67;;;;;;;24.33;100.00;101305.10;1664590;85;21568;-91
2021/06/18 08:39:51;;;;;;;10.30;6.08;;;;;;;24.39;100.00;101296.87;1664155;86;20955;-90
2021/06/18 08:46:01;;;;;;;15.23;6.53;;;;;;;24.74;100.00;101277.85;1662429;82;21043;-88
2021/06/18 08:48:32;;;;;;;12.93;8.20;;;;;;;25.10;100.00;101299.23;1663869;86;20990;-89
2021/06/18 08:51:01;;;;;;;17.77;7.72;;;;;;;25.21;100.00;101298.23;1664072;86;21113;-89
2021/06/18 08:53:29;;;;;;;16.82;7.67;;;;;;;25.22;100.00;101296.53;1664575;85;21057;-89
2021/06/18 08:55:55;;;;;;;16.55;7.90;;;;;;;25.29;100.00;101303.66;1664410;85;21078;-90
2021/06/18 08:58:22;;;;;;;15.23;8.03;;;;;;;25.23;100.00;101298.70;1664115;86;21061;-89
2021/06/18 09:00:51;;;;;;;13.15;7.12;;;;;;;25.37;100.00;101299.19;1663904;86;21058;-89
2021/06/18 09:03:43;;;;;;;14.73;8.13;;;;;;;25.59;100.00;101297.95;1663853;86;21529;-89
2021/06/18 09:38:55;;;;;;;10.23;3.55;;;;;;;25.44;100.00;101293.89;1699001;83;20463;-89
2021/06/18 09:41:41;;;;;;;9.40;3.25;;;;;;;24.90;100.00;101308.59;1690700;84;21086;-89
2021/06/18 09:44:16;;;;;;;5.83;3.10;;;;;;;24.45;100.00;101305.77;1690032;84;21059;-90
2021/06/18 09:46:56;;;;;;;11.03;3.37;;;;;;;24.21;100.00;101307.22;1686767;84;21526;-88
2021/06/18 09:49:33;;;;;;;11.80;3.60;;;;;;;24.07;100.00;101309.41;1659686;85;21168;-91
2021/06/18 09:52:11;;;;;;;10.30;4.33;;;;;;;23.95;100.00;101312.88;1659753;86;21035;-89
2021/06/18 09:54:46;;;;;;;12.20;4.62;;;;;;;23.68;100.00;101311.93;1655943;86;21074;-88
2021/06/18 09:57:15;;;;;;;13.25;5.62;;;;;;;23.40;100.00;101329.45;1659572;86;21062;-89
2021/06/18 09:59:50;;;;;;;13.20;6.85;;;;;;;23.04;100.00;101335.61;1659954;86;20979;-90
2021/06/18 10:02:40;;;;;;;17.70;6.60;;;;;;;22.78;100.00;101328.73;1659685;86;21169;-88
2021/06/18 10:05:24;;;;;;;14.93;6.42;;;;;;;22.63;100.00;101327.29;1659447;86;21031;-90
2021/06/18 10:08:12;;;;;;;11.78;6.75;;;;;;;22.54;100.00;101334.73;1659825;86;21529;-90
2021/06/18 10:10:38;;;;;;;14.18;6.97;;;;;;;22.53;100.00;101330.38;1659856;86;21097;-90
2021/06/18 10:13:08;;;;;;;13.60;7.10;;;;;;;22.60;100.00;101327.13;1659701;86;21550;-87
2021/06/18 10:15:38;;;;;;;13.25;7.65;;;;;;;22.74;100.00;101344.27;1659993;86;21065;-89
2021/06/18 10:18:10;;;;;;;14.45;8.30;;;;;;;22.87;100.00;101334.23;1659714;86;21026;-92
2021/06/18 10:20:33;;;;;;;11.68;7.30;;;;;;;22.99;100.00;101335.77;1656216;86;21089;-91
2021/06/18 10:23:16;;;;;;;11.65;7.42;;;;;;;23.03;100.00;101326.30;1659401;86;21062;-90
2021/06/18 10:25:57;;;;;;;15.00;7.60;;;;;;;23.04;100.00;101329.31;1659674;85;21031;-89
2021/06/18 10:28:30;;;;;;;15.13;7.35;;;;;;;23.10;100.00;101332.13;1621970;88;21160;-89
2021/06/18 10:31:00;;;;;;;13.75;7.42;;;;;;;23.12;100.00;101321.05;1625246;88;21134;-89
2021/06/18 10:33:34;;;;;;;13.75;7.65;;;;;;;23.10;100.00;101329.38;1625216;87;21977;-90
2021/06/18 10:36:10;;;;;;;16.07;7.17;;;;;;;22.96;100.00;101329.55;1622154;88;21061;-89
2021/06/18 10:38:46;;;;;;;17.73;8.08;;;;;;;22.87;100.00;101333.66;1623324;88;21523;-88
2021/06/18 10:41:24;;;;;;;14.87;8.23;;;;;;;22.71;100.00;101348.20;1652066;86;21309;-89
2021/06/18 10:43:57;;;;;;;14.50;8.45;;;;;;;22.60;100.00;101347.17;1652028;86;21058;-87
2021/06/18 10:46:33;;;;;;;14.70;8.43;;;;;;;22.45;100.00;101343.53;1653733;84;21128;-86
2021/06/18 10:49:13;;;;;;;18.57;8.75;;;;;;;22.32;100.00;101347.22;1651917;86;21076;-87
2021/06/18 10:51:50;;;;;;;17.45;8.90;;;;;;;22.21;100.00;101348.91;1652113;86;21075;-87
2021/06/18 10:54:26;;;;;;;17.05;9.18;;;;;;;22.17;100.00;101346.54;1652049;86;21150;-88
2021/06/18 10:57:05;;;;;;;19.12;10.05;;;;;;;22.20;100.00;101349.21;1651855;86;21032;-88
2021/06/18 10:59:39;;;;;;;17.12;9.73;;;;;;;22.27;100.00;101357.80;1652143;86;21030;-88
2021/06/18 11:02:33;;;;;;;15.55;9.58;;;;;;;22.37;100.00;101353.94;1571446;91;21107;-88
2021/06/18 11:08:55;;;;;;;18.07;9.45;;;;;;;22.51;100.00;101346.36;1590225;90;21080;-87
2021/06/18 11:11:26;;;;;;;14.70;8.53;;;;;;;22.65;100.00;101350.34;1590371;90;21083;-90
2021/06/18 11:14:08;;;;;;;15.50;7.92;;;;;;;22.68;100.00;101350.48;1594582;90;21067;-89
2021/06/18 11:16:41;;;;;;;13.45;7.53;;;;;;;22.69;100.00;101362.28;1555821;91;21220;-88
2021/06/18 11:19:27;;;;;;;12.78;7.70;;;;;;;22.62;100.00;101364.72;1555750;89;21689;-87
2021/06/18 11:21:55;;;;;;;10.95;6.87;;;;;;;22.59;100.00;101368.92;1555773;92;21802;-87
2021/06/18 11:24:39;;;;;;;12.73;6.85;;;;;;;22.58;100.00;101366.47;1555672;92;21064;-88
2021/06/18 11:27:32;;;;;;;11.05;6.62;;;;;;;22.54;100.00;101371.81;1555362;92;21147;-90
2021/06/18 11:30:27;;;;;;;9.80;4.90;;;;;;;22.50;100.00;101375.52;1554027;92;21127;-89
2021/06/18 11:32:55;;;;;;;7.03;4.58;;;;;;;22.43;100.00;101367.75;1507983;94;21180;-88
2021/06/18 11:35:37;;;;;;;6.50;4.90;;;;;;;22.42;100.00;101376.56;1508665;95;21371;-89
2021/06/18 11:38:17;;;;;;;6.65;4.92;;;;;;;22.37;100.00;101375.91;1500402;95;21828;-88
2021/06/18 11:41:09;;;;;;;8.25;4.85;;;;;;;22.39;100.00;101368.16;1521527;93;21075;-89
2021/06/18 11:43:33;;;;;;;7.85;5.30;;;;;;;22.42;100.00;101370.27;1520291;94;21249;-90
2021/06/18 11:46:00;;;;;;;8.73;4.85;;;;;;;22.48;100.00;101366.23;1520573;94;21133;-88
2021/06/18 11:48:27;;;;;;;6.25;4.62;;;;;;;22.51;100.00;101366.96;1517542;94;21986;-88
2021/06/18 11:50:54;;;;;;;11.80;4.87;;;;;;;22.57;100.00;101357.44;1520838;94;21690;-87
2021/06/18 11:53:21;;;;;;;6.85;4.30;;;;;;;22.58;100.00;101360.41;1520953;94;21573;-88
2021/06/18 11:55:59;;;;;;;6.47;4.17;;;;;;;22.60;100.00;101358.16;1520690;93;21102;-88
2021/06/18 11:58:33;;;;;;;7.75;4.60;;;;;;;22.68;100.00;101364.23;1547090;88;21065;-88
2021/06/18 12:04:23;;;;;;;7.55;4.72;;;;;;;22.81;100.00;101354.77;1625320;87;21205;-89
2021/06/18 12:06:49;;;;;;;11.53;5.10;;;;;;;22.94;100.00;101347.47;1631098;87;21744;-89
2021/06/18 12:09:22;;;;;;;7.97;4.47;;;;;;;22.99;100.00;101345.39;1627381;87;21085;-89
2021/06/18 12:12:04;;;;;;;14.68;4.40;;;;;;;23.11;100.00;101343.36;1646230;87;21016;-90
2021/06/18 12:18:15;;;;;;;9.15;4.00;;;;;;;23.40;100.00;101350.09;1646840;87;20985;-89
2021/06/18 12:20:45;;;;;;;10.23;4.85;;;;;;;23.51;100.00;101345.28;1654255;85;21016;-89
2021/06/18 12:23:16;;;;;;;8.75;4.65;;;;;;;23.56;100.00;101347.86;1676063;85;21507;-90
2021/06/18 12:25:44;;;;;;;15.95;5.35;;;;;;;23.61;100.00;101339.17;1654546;85;21055;-89
2021/06/18 12:28:16;;;;;;;11.78;5.22;;;;;;;23.64;100.00;101337.13;1676563;85;21623;-90
2021/06/18 12:30:44;;;;;;;14.03;5.00;;;;;;;23.71;100.00;101338.85;1673370;85;20973;-90
2021/06/18 12:33:10;;;;;;;15.48;5.33;;;;;;;23.78;100.00;101341.30;1675967;85;21095;-88
2021/06/18 12:35:43;;;;;;;19.60;5.28;;;;;;;23.78;100.00;101335.80;1675924;85;21027;-88